Tensed, ID (83870)

2:21 PM PDT on August 27, 2014 (GMT -0700)
KWAGARFI3 | Change Station
CLOSE
Current Station
Personal Weather Station
Location: Garfield, WA
Elevation: 2520 ft
Nearby Weather Stations

Elev 2520 ft 47.01 °N, 117.15 °W | Updated 1 minute ago

Clear
Clear
89.6 °F
Feels Like 86 °F
N
0.0
Wind Variable Wind from SSW
Gusts 7.0 mph

Today
High -- | Low -- °F
--% Chance of Precip.
Yesterday
High -- | Low -- °F
Precip. -- in
6:00 AM 7:36 PM
Waxing Crescent, 5% visible
Pressure 30.04 in
Visibility 10.0 miles
Clouds Clear
Heat Index 86 °F
Dew Point 40 °F
Humidity 18%
Rainfall 0.00 in
Snow Depth Not available.
UV 8 out of 12
Pollen 7.70 out of 12
PM2.5 Good
Flu Activity Not available.
METAR KPUW 272053Z AUTO VRB04KT 10SM CLR 29/03 A3007 RMK AO2 SLP170 T02940033 57009

More Conditions Fewer Conditions

Pressure 30.04 in
Visibility 10.0 miles
Clouds Clear
Heat Index 86 °F
Dew Point 40 °F
Humidity 18%
Rainfall 0.00 in
Snow Depth Not available.
UV 8 out of 12
Pollen 7.70 out of 12
PM2.5 Good
Flu Activity Not available.
METAR KPUW 272053Z AUTO VRB04KT 10SM CLR 29/03 A3007 RMK AO2 SLP170 T02940033 57009

More Conditions Fewer Conditions

10-Day Weather Forecast

Almanac

Astronomy

Aug. 27, 2014 Rise Set
Actual Time 6:00 AM PDT 7:36 PM PDT
Civil Twilight 5:28 AM PDT 8:08 PM PDT
Nautical Twilight 4:48 AM PDT 8:47 PM PDT
Astronomical Twilight 4:06 AM PDT 9:30 PM PDT
Moon 8:11 AM PDT 8:18 PM PDT
Length of Visible Light 14h 40m
Length of Day
13h 36m
Tomorrow will be 3m 13s shorter.
Waxing Crescent, 5% of the Moon is Illuminated
Today
Waxing Crescent
Sep 2
First Quarter
Sep 8
Full
Sep 15
Last Quarter
Sep 24
New

Today's Extremes

State Highs State Lows

Community

WunderPhotos

Upload Photos

1,747,791 photos uploaded!

Nearby

Air Quality

  Air Quality AQ Index Pollutant
Yesterday Good
PM2.5
Current Good
PM2.5
Wednesday Good
PM2.5
Thursday Good
PM2.5
Friday Good
PM2.5

Snow Depth

Station Depth Elevation
Mica Creek 1 in 4750 ft
Humboldt Gulch 2 in 4250 ft
Lookout 0 in 5140 ft
Hemlock Butte 0 in 5810 ft
Schweitzer Basin 0 in 6090 ft

Earthquake Activity

City Distance Mag. Time & Date
No recent earthquake activity has been reported nearby.
Minimum magnitude displayed is 2.5.

Coastal Water Temperatures

Place Temperature
No Stations Reporting

Nearby Weather Stations